Time,TemperatureF,DewpointF,PressureIn,WindDirection,WindDirectionDegrees,WindSpeedMPH,WindSpeedGustMPH,Humidity,HourlyPrecipIn,Conditions,Clouds,dailyrainin,SoftwareType,DateUTC
2013-12-26 00:02:00,20.6,19.1,30.41,WSW,246,0.0,0.0,94,0.00,RA,,0.00,WeatherDisplay:10.37,2013-12-26 06:02:00,
2013-12-26 00:07:00,20.2,18.8,30.40,WSW,246,0.0,0.0,94,0.00,RA,,0.00,WeatherDisplay:10.37,2013-12-26 06:07:00,
2013-12-26 00:12:00,19.9,18.2,30.40,WSW,246,0.0,0.0,93,0.00,CLR,,0.00,WeatherDisplay:10.37,2013-12-26 06:12:00,
2013-12-26 00:17:00,20.0,18.6,30.40,WSW,246,0.0,0.0,94,0.00,CLR,,0.00,WeatherDisplay:10.37,2013-12-26 06:17:00,
2013-12-26 00:22:00,20.3,19.1,30.40,WSW,246,0.0,0.0,95,0.00,CLR,,0.00,WeatherDisplay:10.37,2013-12-26 06:22:00,
2013-12-26 00:27:00,20.0,18.6,30.40,WSW,246,0.0,0.0,94,0.00,CLR,,0.00,WeatherDisplay:10.37,2013-12-26 06:27:00,
2013-12-26 00:32:00,19.8,18.4,30.40,WSW,246,0.0,0.0,94,0.00,CLR,,0.00,WeatherDisplay:10.37,2013-12-26 06:32:00,
2013-12-26 00:37:00,19.8,18.4,30.40,WSW,246,0.0,0.0,94,0.00,CLR,,0.00,WeatherDisplay:10.37,2013-12-26 06:37:00,
2013-12-26 00:42:00,19.7,18.3,30.40,WSW,246,0.0,0.0,94,0.00,CLR,,0.00,WeatherDisplay:10.37,2013-12-26 06:42:00,
2013-12-26 00:47:00,19.7,18.3,30.40,WSW,246,0.0,0.0,94,0.00,CLR,,0.00,WeatherDisplay:10.37,2013-12-26 06:47:00,
2013-12-26 00:52:00,19.6,18.2,30.40,WSW,246,0.0,0.0,94,0.00,CLR,,0.00,WeatherDisplay:10.37,2013-12-26 06:52:00,
2013-12-26 00:57:00,19.5,18.1,30.40,WSW,246,0.0,0.0,94,0.00,CLR,,0.00,WeatherDisplay:10.37,2013-12-26 06:57:00,
2013-12-26 01:02:00,19.3,17.9,30.40,WSW,246,0.0,0.0,94,0.00,CLR,,0.00,WeatherDisplay:10.37,2013-12-26 07:02:00,
2013-12-26 01:07:00,19.0,17.3,30.40,WSW,246,0.0,0.0,93,0.00,CLR,,0.00,WeatherDisplay:10.37,2013-12-26 07:07:00,
2013-12-26 01:12:00,19.2,17.8,30.40,WSW,246,0.0,1.2,94,0.00,CLR,,0.00,WeatherDisplay:10.37,2013-12-26 07:12:00,
2013-12-26 01:17:00,19.1,17.7,30.40,WSW,246,0.0,0.0,94,0.00,CLR,,0.00,WeatherDisplay:10.37,2013-12-26 07:17:00,
2013-12-26 01:22:00,18.9,17.2,30.40,WSW,246,0.0,0.0,93,0.00,CLR,,0.00,WeatherDisplay:10.37,2013-12-26 07:22:00,
2013-12-26 01:27:00,18.9,17.5,30.40,WSW,246,0.0,0.0,94,0.00,CLR,,0.00,WeatherDisplay:10.37,2013-12-26 07:27:00,
2013-12-26 01:32:00,19.1,17.7,30.39,WSW,246,0.0,0.0,94,0.00,CLR,,0.00,WeatherDisplay:10.37,2013-12-26 07:32:00,
2013-12-26 01:37:00,19.2,17.8,30.39,WSW,246,0.0,0.0,94,0.00,CLR,,0.00,WeatherDisplay:10.37,2013-12-26 07:37:00,
2013-12-26 01:42:00,19.0,17.6,30.39,WSW,246,0.0,0.0,94,0.00,CLR,,0.00,WeatherDisplay:10.37,2013-12-26 07:42:00,
2013-12-26 01:47:00,18.8,17.4,30.39,WSW,246,0.0,0.0,94,0.00,CLR,,0.00,WeatherDisplay:10.37,2013-12-26 07:47:00,
2013-12-26 01:52:00,18.8,17.4,30.39,WSW,246,0.0,0.0,94,0.00,CLR,,0.00,WeatherDisplay:10.37,2013-12-26 07:52:00,
2013-12-26 01:57:00,18.9,17.5,30.39,WSW,246,0.0,0.0,94,0.00,CLR,,0.00,WeatherDisplay:10.37,2013-12-26 07:57:00,
2013-12-26 02:02:00,18.8,17.4,30.39,WSW,246,0.0,0.0,94,0.00,CLR,,0.00,WeatherDisplay:10.37,2013-12-26 08:02:00,
2013-12-26 02:07:00,18.4,16.7,30.39,WSW,246,0.0,0.0,93,0.00,CLR,,0.00,WeatherDisplay:10.37,2013-12-26 08:07:00,
2013-12-26 02:12:00,18.4,17.0,30.39,WSW,246,0.0,0.0,94,0.00,CLR,,0.00,WeatherDisplay:10.37,2013-12-26 08:12:00,
2013-12-26 02:17:00,18.3,16.9,30.39,WSW,246,0.0,0.0,94,0.00,CLR,,0.00,WeatherDisplay:10.37,2013-12-26 08:17:00,
2013-12-26 02:22:00,17.9,16.2,30.39,WSW,246,0.0,0.0,93,0.00,CLR,,0.00,WeatherDisplay:10.37,2013-12-26 08:22:00,
2013-12-26 02:27:00,17.6,15.9,30.39,WSW,246,0.0,0.0,93,0.00,CLR,,0.00,WeatherDisplay:10.37,2013-12-26 08:27:00,
2013-12-26 02:32:00,17.4,15.7,30.38,WSW,246,0.0,0.0,93,0.00,CLR,,0.00,WeatherDisplay:10.37,2013-12-26 08:32:00,
2013-12-26 02:37:00,17.3,15.6,30.38,WSW,246,0.0,0.0,93,0.00,CLR,,0.00,WeatherDisplay:10.37,2013-12-26 08:37:00,
2013-12-26 02:42:00,17.5,16.1,30.38,WSW,246,0.0,0.0,94,0.00,CLR,,0.00,WeatherDisplay:10.37,2013-12-26 08:42:00,
2013-12-26 02:47:00,18.0,16.8,30.39,WSW,246,0.0,0.0,95,0.00,CLR,,0.00,WeatherDisplay:10.37,2013-12-26 08:47:00,
2013-12-26 02:52:00,18.2,16.8,30.38,WSW,246,0.0,0.0,94,0.00,CLR,,0.00,WeatherDisplay:10.37,2013-12-26 08:52:00,
2013-12-26 02:57:00,18.1,16.7,30.38,WSW,246,0.0,0.0,94,0.00,CLR,,0.00,WeatherDisplay:10.37,2013-12-26 08:57:00,
2013-12-26 03:02:00,17.8,16.1,30.38,WSW,246,0.0,0.0,93,0.00,CLR,,0.00,WeatherDisplay:10.37,2013-12-26 09:02:00,
2013-12-26 03:07:00,17.6,15.9,30.38,WSW,246,0.0,0.0,93,0.00,CLR,,0.00,WeatherDisplay:10.37,2013-12-26 09:07:00,
2013-12-26 03:12:00,17.7,16.3,30.38,WSW,246,0.0,0.0,94,0.00,CLR,,0.00,WeatherDisplay:10.37,2013-12-26 09:12:00,
2013-12-26 03:17:00,17.9,16.5,30.38,WSW,246,0.0,0.0,94,0.00,CLR,,0.00,WeatherDisplay:10.37,2013-12-26 09:17:00,
2013-12-26 03:22:00,17.9,16.5,30.38,WSW,246,0.0,0.0,94,0.00,CLR,,0.00,WeatherDisplay:10.37,2013-12-26 09:22:00,
2013-12-26 03:27:00,18.1,16.7,30.38,WSW,246,0.0,0.0,94,0.00,CLR,,0.00,WeatherDisplay:10.37,2013-12-26 09:27:00,
2013-12-26 03:32:00,18.3,16.9,30.38,WSW,246,0.0,1.2,94,0.00,CLR,,0.00,WeatherDisplay:10.37,2013-12-26 09:32:00,
2013-12-26 03:37:00,18.8,17.6,30.38,WSW,246,0.0,0.0,95,0.00,CLR,,0.00,WeatherDisplay:10.37,2013-12-26 09:37:00,
2013-12-26 03:42:00,19.0,17.8,30.37,WSW,246,0.0,0.0,95,0.00,CLR,,0.00,WeatherDisplay:10.37,2013-12-26 09:42:00,
2013-12-26 03:47:00,19.1,17.7,30.36,WSW,246,0.0,0.0,94,0.00,CLR,,0.00,WeatherDisplay:10.37,2013-12-26 09:47:00,
2013-12-26 03:52:00,19.1,17.7,30.36,WSW,246,0.0,0.0,94,0.00,CLR,,0.00,WeatherDisplay:10.37,2013-12-26 09:52:00,
2013-12-26 03:57:00,19.8,18.6,30.36,WSW,246,0.0,0.0,95,0.00,CLR,,0.00,WeatherDisplay:10.37,2013-12-26 09:57:00,
2013-12-26 04:02:00,20.2,19.0,30.36,WSW,246,0.0,0.0,95,0.00,CLR,,0.00,WeatherDisplay:10.37,2013-12-26 10:02:00,
2013-12-26 04:07:00,20.5,19.3,30.35,WSW,246,0.0,0.0,95,0.00,CLR,,0.00,WeatherDisplay:10.37,2013-12-26 10:07:00,
2013-12-26 04:12:00,20.5,19.3,30.35,WSW,246,0.0,0.0,95,0.00,CLR,,0.00,WeatherDisplay:10.37,2013-12-26 10:12:00,
2013-12-26 04:17:00,20.3,18.8,30.35,WSW,246,0.0,0.0,94,0.00,CLR,,0.00,WeatherDisplay:10.37,2013-12-26 10:17:00,
2013-12-26 04:22:00,20.1,18.7,30.35,WSW,246,0.0,0.0,94,0.00,CLR,,0.00,WeatherDisplay:10.37,2013-12-26 10:22:00,
2013-12-26 04:27:00,20.4,19.2,30.34,WSW,246,0.0,0.0,95,0.00,CLR,,0.00,WeatherDisplay:10.37,2013-12-26 10:27:00,
2013-12-26 04:32:00,20.5,19.0,30.34,WSW,246,0.0,0.0,94,0.00,CLR,,0.00,WeatherDisplay:10.37,2013-12-26 10:32:00,
2013-12-26 04:37:00,20.6,19.4,30.34,WSW,246,0.0,0.0,95,0.00,CLR,,0.00,WeatherDisplay:10.37,2013-12-26 10:37:00,
2013-12-26 04:42:00,20.8,19.6,30.34,WSW,246,0.0,0.0,95,0.00,CLR,,0.00,WeatherDisplay:10.37,2013-12-26 10:42:00,
2013-12-26 04:47:00,21.1,19.9,30.34,WSW,246,0.0,0.0,95,0.00,CLR,,0.00,WeatherDisplay:10.37,2013-12-26 10:47:00,
2013-12-26 04:52:00,21.2,20.0,30.34,WSW,246,0.0,0.0,95,0.00,CLR,,0.00,WeatherDisplay:10.37,2013-12-26 10:52:00,
2013-12-26 04:57:00,21.0,19.5,30.34,WSW,246,0.0,0.0,94,0.00,CLR,,0.00,WeatherDisplay:10.37,2013-12-26 10:57:00,
2013-12-26 05:02:00,20.9,19.4,30.34,WSW,246,0.0,0.0,94,0.00,CLR,,0.00,WeatherDisplay:10.37,2013-12-26 11:02:00,
2013-12-26 05:07:00,20.6,19.1,30.34,WSW,246,0.0,0.0,94,0.00,CLR,,0.00,WeatherDisplay:10.37,2013-12-26 11:07:00,
2013-12-26 05:12:00,20.4,18.9,30.34,WSW,246,0.0,0.0,94,0.00,CLR,,0.00,WeatherDisplay:10.37,2013-12-26 11:12:00,
2013-12-26 05:17:00,20.3,18.8,30.34,WSW,246,0.0,0.0,94,0.00,CLR,,0.00,WeatherDisplay:10.37,2013-12-26 11:17:00,
2013-12-26 05:22:00,20.2,18.8,30.34,WSW,246,0.0,0.0,94,0.00,CLR,,0.00,WeatherDisplay:10.37,2013-12-26 11:22:00,
2013-12-26 05:27:00,19.9,18.2,30.34,WSW,246,0.0,0.0,93,0.00,CLR,,0.00,WeatherDisplay:10.37,2013-12-26 11:27:00,
2013-12-26 05:32:00,19.6,17.9,30.34,WSW,246,0.0,0.0,93,0.00,CLR,,0.00,WeatherDisplay:10.37,2013-12-26 11:32:00,
2013-12-26 05:37:00,19.4,17.7,30.34,WSW,246,0.0,0.0,93,0.00,CLR,,0.00,WeatherDisplay:10.37,2013-12-26 11:37:00,
2013-12-26 05:42:00,19.2,17.5,30.34,WSW,246,0.0,0.0,93,0.00,CLR,,0.00,WeatherDisplay:10.37,2013-12-26 11:42:00,
2013-12-26 05:47:00,19.1,17.4,30.34,WSW,246,0.0,0.0,93,0.00,CLR,,0.00,WeatherDisplay:10.37,2013-12-26 11:47:00,
2013-12-26 05:52:00,19.0,17.6,30.34,WSW,246,0.0,0.0,94,0.00,CLR,,0.00,WeatherDisplay:10.37,2013-12-26 11:52:00,
2013-12-26 05:57:00,19.1,17.7,30.34,WSW,246,0.0,0.0,94,0.00,CLR,,0.00,WeatherDisplay:10.37,2013-12-26 11:57:00,
2013-12-26 06:02:00,19.1,17.7,30.34,WSW,246,0.0,0.0,94,0.00,CLR,,0.00,WeatherDisplay:10.37,2013-12-26 12:02:00,
2013-12-26 06:07:00,19.8,18.6,30.34,SSW,196,0.0,0.0,95,0.00,CLR,,0.00,WeatherDisplay:10.37,2013-12-26 12:07:00,
2013-12-26 06:12:00,20.4,19.4,30.34,SSW,197,0.0,0.0,96,0.00,CLR,,0.00,WeatherDisplay:10.37,2013-12-26 12:12:00,
2013-12-26 06:17:00,21.1,20.1,30.33,SSW,196,0.0,0.0,96,0.00,CLR,,0.00,WeatherDisplay:10.37,2013-12-26 12:17:00,
2013-12-26 06:22:00,21.2,20.2,30.33,SSW,198,0.0,0.0,96,0.00,CLR,,0.00,WeatherDisplay:10.37,2013-12-26 12:22:00,
2013-12-26 06:27:00,21.7,20.7,30.33,SSW,197,0.0,0.0,96,0.00,CLR,,0.00,WeatherDisplay:10.37,2013-12-26 12:27:00,
2013-12-26 06:32:00,22.4,21.4,30.33,SW,223,0.0,0.0,96,0.00,CLR,,0.00,WeatherDisplay:10.37,2013-12-26 12:32:00,
2013-12-26 06:37:00,23.4,22.4,30.33,WSW,240,0.2,1.2,96,0.00,CLR,,0.00,WeatherDisplay:10.37,2013-12-26 12:37:00,
2013-12-26 06:42:00,23.7,22.2,30.33,SSW,207,0.0,0.0,94,0.00,CLR,,0.00,WeatherDisplay:10.37,2013-12-26 12:42:00,
2013-12-26 06:47:00,23.9,22.4,30.33,SE,144,0.1,1.2,94,0.00,CLR,,0.00,WeatherDisplay:10.37,2013-12-26 12:47:00,
2013-12-26 06:52:00,24.2,22.7,30.33,SSE,155,0.0,0.0,94,0.00,CLR,,0.00,WeatherDisplay:10.37,2013-12-26 12:52:00,
2013-12-26 06:57:00,24.3,22.6,30.33,South,179,0.0,1.0,93,0.00,CLR,,0.00,WeatherDisplay:10.37,2013-12-26 12:57:00,
2013-12-26 06:59:00,24.3,22.6,30.33,SSE,147,0.5,1.2,93,0.00,CLR,,0.00,WeatherDisplay:10.37,2013-12-26 12:59:00,
2013-12-26 07:04:00,24.6,22.6,30.33,SE,144,0.0,1.2,92,0.00,CLR,,0.00,WeatherDisplay:10.37,2013-12-26 13:04:00,
2013-12-26 07:09:00,24.6,22.6,30.33,SE,145,0.1,1.2,92,0.00,CLR,,0.00,WeatherDisplay:10.37,2013-12-26 13:09:00,
2013-12-26 07:14:00,24.7,22.7,30.33,SSE,156,0.2,2.3,92,0.00,CLR,,0.00,WeatherDisplay:10.37,2013-12-26 13:14:00,
2013-12-26 07:19:00,25.2,22.9,30.33,SSW,201,0.1,1.2,91,0.00,CLR,,0.00,WeatherDisplay:10.37,2013-12-26 13:19:00,
2013-12-26 07:24:00,25.4,22.9,30.33,SSE,159,0.2,1.2,90,0.00,CLR,,0.00,WeatherDisplay:10.37,2013-12-26 13:24:00,
2013-12-26 07:29:00,25.5,23.0,30.33,SSE,159,0.0,0.0,90,0.00,CLR,,0.00,WeatherDisplay:10.37,2013-12-26 13:29:00,
2013-12-26 07:34:00,25.5,23.0,30.33,SSE,160,0.0,0.0,90,0.00,CLR,,0.00,WeatherDisplay:10.37,2013-12-26 13:34:00,
2013-12-26 07:39:00,25.4,22.6,30.33,SSE,148,0.0,0.0,89,0.00,CLR,,0.00,WeatherDisplay:10.37,2013-12-26 13:39:00,
2013-12-26 07:44:00,25.8,23.0,30.33,SE,129,0.1,0.0,89,0.00,CLR,,0.00,WeatherDisplay:10.37,2013-12-26 13:44:00,
2013-12-26 07:49:00,25.9,23.1,30.33,SE,146,0.0,0.0,89,0.00,CLR,,0.00,WeatherDisplay:10.37,2013-12-26 13:49:00,
2013-12-26 07:54:00,26.0,22.9,30.33,SE,129,0.0,1.2,88,0.00,CLR,,0.00,WeatherDisplay:10.37,2013-12-26 13:54:00,
2013-12-26 07:59:00,26.0,22.9,30.33,SSE,164,0.3,0.0,88,0.00,CLR,,0.00,WeatherDisplay:10.37,2013-12-26 13:59:00,
2013-12-26 08:04:00,26.1,23.0,30.33,SW,228,0.0,1.2,88,0.00,CLR,,0.00,WeatherDisplay:10.37,2013-12-26 14:04:00,
2013-12-26 08:09:00,26.2,23.1,30.33,SSW,192,0.3,1.2,88,0.00,CLR,,0.00,WeatherDisplay:10.37,2013-12-26 14:09:00,
2013-12-26 08:14:00,26.7,23.4,30.33,SSE,157,0.0,1.2,87,0.00,CLR,,0.00,WeatherDisplay:10.37,2013-12-26 14:14:00,
2013-12-26 08:19:00,27.2,23.8,30.33,SSE,158,0.0,0.0,87,0.00,CLR,,0.00,WeatherDisplay:10.37,2013-12-26 14:19:00,
2013-12-26 08:24:00,27.9,24.3,30.33,South,181,0.3,2.3,86,0.00,CLR,,0.00,WeatherDisplay:10.37,2013-12-26 14:24:00,
2013-12-26 08:29:00,28.4,24.2,30.33,SSE,162,0.9,2.3,84,0.00,CLR,,0.00,WeatherDisplay:10.37,2013-12-26 14:29:00,
2013-12-26 08:34:00,29.0,24.5,30.33,SW,221,2.1,2.1,83,0.00,CLR,,0.00,WeatherDisplay:10.37,2013-12-26 14:34:00,
2013-12-26 08:39:00,29.5,24.7,30.33,WSW,239,0.8,3.5,82,0.00,CLR,,0.00,WeatherDisplay:10.37,2013-12-26 14:39:00,
2013-12-26 08:44:00,30.1,25.0,30.33,SW,217,1.9,3.5,81,0.00,CLR,,0.00,WeatherDisplay:10.37,2013-12-26 14:44:00,
2013-12-26 08:49:00,30.8,25.4,30.33,SW,220,1.3,2.3,80,0.00,CLR,,0.00,WeatherDisplay:10.37,2013-12-26 14:49:00,
2013-12-26 08:54:00,31.5,25.4,30.32,SW,216,1.9,2.3,78,0.00,CLR,,0.00,WeatherDisplay:10.37,2013-12-26 14:54:00,
2013-12-26 08:59:00,32.1,25.7,30.32,WSW,255,1.5,3.5,77,0.00,CLR,,0.00,WeatherDisplay:10.37,2013-12-26 14:59:00,
2013-12-26 09:04:00,32.8,25.7,30.32,SSW,208,0.4,2.3,75,0.00,CLR,,0.00,WeatherDisplay:10.37,2013-12-26 15:04:00,
2013-12-26 09:09:00,33.4,25.7,30.32,SSW,203,0.9,5.8,73,0.00,CLR,,0.00,WeatherDisplay:10.37,2013-12-26 15:09:00,
2013-12-26 09:14:00,34.0,25.6,30.32,SW,231,1.8,3.5,71,0.00,CLR,,0.00,WeatherDisplay:10.37,2013-12-26 15:14:00,
2013-12-26 09:19:00,34.6,25.5,30.32,WSW,247,1.7,4.6,69,0.00,CLR,,0.00,WeatherDisplay:10.37,2013-12-26 15:19:00,
2013-12-26 09:24:00,35.4,25.5,30.33,SSW,213,2.0,4.0,67,0.00,CLR,,0.00,WeatherDisplay:10.37,2013-12-26 15:24:00,
2013-12-26 09:29:00,36.0,25.4,30.33,SW,231,4.0,5.0,65,0.00,CLR,,0.00,WeatherDisplay:10.37,2013-12-26 15:29:00,
2013-12-26 09:34:00,36.5,25.8,30.32,SE,124,4.4,5.8,65,0.00,CLR,,0.00,WeatherDisplay:10.37,2013-12-26 15:34:00,
2013-12-26 09:39:00,37.1,25.7,30.32,SW,233,2.0,6.9,63,0.00,CLR,,0.00,WeatherDisplay:10.37,2013-12-26 15:39:00,
2013-12-26 09:44:00,37.6,25.4,30.32,South,190,4.7,4.7,61,0.00,CLR,,0.00,WeatherDisplay:10.37,2013-12-26 15:44:00,
2013-12-26 09:49:00,38.1,25.8,30.32,SW,219,2.0,6.9,61,0.00,CLR,,0.00,WeatherDisplay:10.37,2013-12-26 15:49:00,
2013-12-26 09:54:00,38.4,26.1,30.32,West,269,2.8,4.6,61,0.00,CLR,,0.00,WeatherDisplay:10.37,2013-12-26 15:54:00,
2013-12-26 09:59:00,38.7,25.6,30.32,SW,219,4.2,10.4,59,0.00,CLR,,0.00,WeatherDisplay:10.37,2013-12-26 15:59:00,
2013-12-26 10:04:00,38.9,26.2,30.32,SW,234,3.0,6.9,60,0.00,CLR,,0.00,WeatherDisplay:10.37,2013-12-26 16:04:00,
2013-12-26 10:09:00,39.2,26.1,30.32,WSW,258,4.3,6.0,59,0.00,CLR,,0.00,WeatherDisplay:10.37,2013-12-26 16:09:00,
2013-12-26 10:14:00,39.6,26.0,30.32,South,186,2.7,5.8,58,0.00,CLR,,0.00,WeatherDisplay:10.37,2013-12-26 16:14:00,
2013-12-26 10:19:00,39.9,26.3,30.32,SW,233,3.5,5.8,58,0.00,CLR,,0.00,WeatherDisplay:10.37,2013-12-26 16:19:00,
2013-12-26 10:24:00,40.2,26.6,30.32,SW,222,3.3,10.4,58,0.00,CLR,,0.00,WeatherDisplay:10.37,2013-12-26 16:24:00,
2013-12-26 10:29:00,40.5,26.4,30.32,South,177,2.3,6.0,57,0.00,CLR,,0.00,WeatherDisplay:10.37,2013-12-26 16:29:00,
2013-12-26 10:34:00,40.9,26.8,30.32,WSW,254,1.7,3.5,57,0.00,CLR,,0.00,WeatherDisplay:10.37,2013-12-26 16:34:00,
2013-12-26 10:39:00,41.1,26.6,30.31,SSW,198,2.9,8.1,56,0.00,CLR,,0.00,WeatherDisplay:10.37,2013-12-26 16:39:00,
2013-12-26 10:44:00,41.2,26.2,30.31,WSW,245,4.0,8.1,55,0.00,CLR,,0.00,WeatherDisplay:10.37,2013-12-26 16:44:00,
2013-12-26 10:49:00,41.3,26.8,30.31,SW,217,3.5,5.0,56,0.00,CLR,,0.00,WeatherDisplay:10.37,2013-12-26 16:49:00,
2013-12-26 10:54:00,41.6,26.6,30.30,South,184,5.3,8.1,55,0.00,CLR,,0.00,WeatherDisplay:10.37,2013-12-26 16:54:00,
2013-12-26 10:59:00,41.9,26.4,30.30,SW,229,6.0,8.1,54,0.00,CLR,,0.00,WeatherDisplay:10.37,2013-12-26 16:59:00,
2013-12-26 11:04:00,42.2,27.2,30.29,WSW,240,2.8,6.9,55,0.00,CLR,,0.00,WeatherDisplay:10.37,2013-12-26 17:04:00,
2013-12-26 11:09:00,42.5,26.6,30.29,SSW,208,6.0,12.7,53,0.00,CLR,,0.00,WeatherDisplay:10.37,2013-12-26 17:09:00,
2013-12-26 11:14:00,42.9,26.9,30.29,SSW,213,4.0,8.1,53,0.01,RA,,0.01,WeatherDisplay:10.37,2013-12-26 17:14:00,
2013-12-26 11:19:00,43.3,28.2,30.28,WSW,238,2.6,5.0,55,0.01,RA,,0.01,WeatherDisplay:10.37,2013-12-26 17:19:00,
2013-12-26 11:24:00,43.6,27.6,30.28,South,191,3.7,7.0,53,0.01,CLR,,0.01,WeatherDisplay:10.37,2013-12-26 17:24:00,
2013-12-26 11:29:00,44.2,27.7,30.28,SSW,203,2.9,8.1,52,0.01,CLR,,0.01,WeatherDisplay:10.37,2013-12-26 17:29:00,
2013-12-26 11:34:00,44.5,27.5,30.28,SSE,164,4.0,6.9,51,0.01,CLR,,0.01,WeatherDisplay:10.37,2013-12-26 17:34:00,
2013-12-26 11:39:00,44.8,27.8,30.27,SW,226,3.5,8.1,51,0.02,RA,,0.02,WeatherDisplay:10.37,2013-12-26 17:39:00,
2013-12-26 11:44:00,45.0,28.4,30.27,SSE,150,2.7,8.1,52,0.02,RA,,0.02,WeatherDisplay:10.37,2013-12-26 17:44:00,
2013-12-26 11:49:00,45.1,28.0,30.27,SW,235,3.9,5.8,51,0.02,CLR,,0.02,WeatherDisplay:10.37,2013-12-26 17:49:00,
2013-12-26 11:54:00,45.1,28.5,30.26,SSW,212,3.9,6.9,52,0.02,RA,,0.02,WeatherDisplay:10.37,2013-12-26 17:54:00,
2013-12-26 11:59:00,45.2,27.6,30.26,SW,223,5.5,13.8,50,0.03,RA,,0.03,WeatherDisplay:10.37,2013-12-26 17:59:00,
2013-12-26 12:04:00,45.3,28.2,30.25,SW,221,6.8,11.5,51,0.04,RA,,0.04,WeatherDisplay:10.37,2013-12-26 18:04:00,
2013-12-26 12:09:00,45.5,28.4,30.25,South,177,6.5,11.5,51,0.04,RA,,0.05,WeatherDisplay:10.37,2013-12-26 18:09:00,
2013-12-26 12:14:00,45.6,28.5,30.24,SW,220,6.4,8.1,51,0.04,RA,,0.05,WeatherDisplay:10.37,2013-12-26 18:14:00,
2013-12-26 12:19:00,45.9,28.8,30.25,SSW,193,2.4,6.9,51,0.04,RA,,0.05,WeatherDisplay:10.37,2013-12-26 18:19:00,
2013-12-26 12:24:00,46.3,28.7,30.25,SW,227,4.7,8.1,50,0.05,RA,,0.06,WeatherDisplay:10.37,2013-12-26 18:24:00,
2013-12-26 12:29:00,46.3,29.1,30.24,SW,227,4.9,8.1,51,0.05,RA,,0.06,WeatherDisplay:10.37,2013-12-26 18:29:00,
2013-12-26 12:34:00,46.5,28.8,30.25,WNW,284,3.0,9.2,50,0.06,RA,,0.06,WeatherDisplay:10.37,2013-12-26 18:34:00,
2013-12-26 12:39:00,46.8,29.6,30.25,South,176,2.3,7.0,51,0.05,RA,,0.06,WeatherDisplay:10.37,2013-12-26 18:39:00,
2013-12-26 12:44:00,47.2,29.5,30.25,WSW,238,3.0,3.5,50,0.06,RA,,0.07,WeatherDisplay:10.37,2013-12-26 18:44:00,
2013-12-26 12:49:00,47.7,30.0,30.25,WSW,238,3.1,7.0,50,0.06,RA,,0.07,WeatherDisplay:10.37,2013-12-26 18:49:00,
2013-12-26 12:54:00,48.0,29.2,30.24,SW,231,4.0,6.9,48,0.06,RA,,0.08,WeatherDisplay:10.37,2013-12-26 18:54:00,
2013-12-26 12:59:00,48.1,28.8,30.24,WSW,248,8.0,16.1,47,0.05,RA,,0.08,WeatherDisplay:10.37,2013-12-26 18:59:00,
2013-12-26 13:04:00,48.0,28.7,30.25,West,271,5.7,8.1,47,0.05,RA,,0.09,WeatherDisplay:10.37,2013-12-26 19:04:00,
2013-12-26 13:09:00,48.1,29.3,30.25,West,271,4.0,11.5,48,0.05,RA,,0.09,WeatherDisplay:10.37,2013-12-26 19:09:00,
2013-12-26 13:14:00,48.2,29.4,30.25,West,268,4.9,6.9,48,0.05,RA,,0.09,WeatherDisplay:10.37,2013-12-26 19:14:00,
2013-12-26 13:19:00,48.2,29.9,30.25,SW,233,4.2,6.9,49,0.05,RA,,0.09,WeatherDisplay:10.37,2013-12-26 19:19:00,
2013-12-26 13:24:00,48.3,30.0,30.25,WSW,243,2.5,10.4,49,0.05,RA,,0.10,WeatherDisplay:10.37,2013-12-26 19:24:00,
2013-12-26 13:29:00,48.4,29.6,30.25,WSW,251,6.3,10.4,48,0.05,RA,,0.10,WeatherDisplay:10.37,2013-12-26 19:29:00,
2013-12-26 13:34:00,48.1,29.8,30.25,WNW,285,6.5,9.2,49,0.04,CLR,,0.10,WeatherDisplay:10.37,2013-12-26 19:34:00,
2013-12-26 13:39:00,48.1,30.3,30.25,SW,233,3.7,8.1,50,0.05,RA,,0.11,WeatherDisplay:10.37,2013-12-26 19:39:00,
2013-12-26 13:44:00,48.2,30.9,30.25,SW,224,2.2,4.6,51,0.04,RA,,0.11,WeatherDisplay:10.37,2013-12-26 19:44:00,
2013-12-26 13:49:00,48.4,30.1,30.24,West,260,5.5,11.5,49,0.04,CLR,,0.11,WeatherDisplay:10.37,2013-12-26 19:49:00,
2013-12-26 13:54:00,48.5,30.2,30.24,SSW,207,5.6,10.4,49,0.03,CLR,,0.11,WeatherDisplay:10.37,2013-12-26 19:54:00,
2013-12-26 13:59:00,48.7,30.9,30.24,SSW,205,1.8,3.0,50,0.03,CLR,,0.11,WeatherDisplay:10.37,2013-12-26 19:59:00,
2013-12-26 14:04:00,49.2,31.3,30.24,WSW,255,2.2,3.5,50,0.02,CLR,,0.12,WeatherDisplay:10.37,2013-12-26 20:04:00,
2013-12-26 14:09:00,49.2,30.8,30.24,WSW,240,3.5,4.0,49,0.03,RA,,0.12,WeatherDisplay:10.37,2013-12-26 20:09:00,
2013-12-26 14:14:00,48.9,30.1,30.23,WNW,295,2.8,5.8,48,0.02,RA,,0.12,WeatherDisplay:10.37,2013-12-26 20:14:00,
2013-12-26 14:19:00,49.0,29.6,30.23,WSW,240,3.8,5.0,47,0.02,CLR,,0.12,WeatherDisplay:10.37,2013-12-26 20:19:00,
2013-12-26 14:24:00,49.1,30.2,30.23,WNW,292,3.2,3.5,48,0.02,CLR,,0.12,WeatherDisplay:10.37,2013-12-26 20:24:00,
2013-12-26 14:29:00,49.2,29.8,30.23,WSW,238,4.4,5.0,47,0.02,CLR,,0.12,WeatherDisplay:10.37,2013-12-26 20:29:00,
2013-12-26 14:34:00,49.3,29.9,30.23,WSW,255,4.0,8.1,47,0.02,CLR,,0.12,WeatherDisplay:10.37,2013-12-26 20:34:00,
2013-12-26 14:39:00,49.2,29.3,30.23,West,276,5.2,7.0,46,0.01,CLR,,0.12,WeatherDisplay:10.37,2013-12-26 20:39:00,
2013-12-26 14:44:00,49.1,29.7,30.23,West,278,3.4,5.8,47,0.01,CLR,,0.12,WeatherDisplay:10.37,2013-12-26 20:44:00,
2013-12-26 14:49:00,49.1,29.7,30.23,SW,219,4.6,4.6,47,0.01,CLR,,0.12,WeatherDisplay:10.37,2013-12-26 20:49:00,
2013-12-26 14:54:00,49.0,30.1,30.23,SW,221,2.7,4.6,48,0.01,CLR,,0.12,WeatherDisplay:10.37,2013-12-26 20:54:00,
2013-12-26 14:59:00,48.8,30.0,30.23,WSW,248,4.1,8.1,48,0.02,RA,,0.13,WeatherDisplay:10.37,2013-12-26 20:59:00,
2013-12-26 15:04:00,48.7,29.9,30.23,SW,215,2.7,5.8,48,0.02,RA,,0.13,WeatherDisplay:10.37,2013-12-26 21:04:00,
2013-12-26 15:09:00,48.4,29.1,30.23,WSW,255,6.1,11.5,47,0.01,CLR,,0.13,WeatherDisplay:10.37,2013-12-26 21:09:00,
2013-12-26 15:14:00,48.3,30.0,30.23,WSW,257,3.0,4.6,49,0.01,CLR,,0.13,WeatherDisplay:10.37,2013-12-26 21:14:00,
2013-12-26 15:19:00,48.3,30.0,30.24,West,273,2.4,3.5,49,0.01,CLR,,0.13,WeatherDisplay:10.37,2013-12-26 21:19:00,
2013-12-26 15:24:00,48.3,30.5,30.24,WSW,255,1.8,3.5,50,0.01,CLR,,0.13,WeatherDisplay:10.37,2013-12-26 21:24:00,
2013-12-26 15:29:00,48.3,31.0,30.24,West,271,1.4,2.3,51,0.01,CLR,,0.13,WeatherDisplay:10.37,2013-12-26 21:29:00,
2013-12-26 15:34:00,48.1,30.3,30.24,WSW,245,1.9,3.0,50,0.01,CLR,,0.13,WeatherDisplay:10.37,2013-12-26 21:34:00,
2013-12-26 15:39:00,48.1,29.8,30.24,WSW,244,2.6,4.6,49,0.01,CLR,,0.13,WeatherDisplay:10.37,2013-12-26 21:39:00,
2013-12-26 15:44:00,48.0,30.2,30.24,WSW,245,0.9,3.0,50,0.01,CLR,,0.13,WeatherDisplay:10.37,2013-12-26 21:44:00,
2013-12-26 15:49:00,48.1,30.8,30.24,West,265,1.3,2.3,51,0.01,CLR,,0.13,WeatherDisplay:10.37,2013-12-26 21:49:00,
2013-12-26 15:54:00,47.7,30.4,30.24,West,261,3.0,3.5,51,0.01,CLR,,0.13,WeatherDisplay:10.37,2013-12-26 21:54:00,
2013-12-26 15:59:00,47.3,30.1,30.25,West,263,1.3,2.3,51,0.00,CLR,,0.13,WeatherDisplay:10.37,2013-12-26 21:59:00,
2013-12-26 16:04:00,46.9,30.2,30.25,SW,226,1.4,2.3,52,0.00,CLR,,0.13,WeatherDisplay:10.37,2013-12-26 22:04:00,
2013-12-26 16:09:00,46.6,29.4,30.25,WSW,240,1.7,6.9,51,0.00,CLR,,0.13,WeatherDisplay:10.37,2013-12-26 22:09:00,
2013-12-26 16:14:00,46.2,29.5,30.25,SW,236,2.0,3.5,52,0.00,CLR,,0.13,WeatherDisplay:10.37,2013-12-26 22:14:00,
2013-12-26 16:19:00,45.8,30.1,30.26,West,272,1.4,3.5,54,0.00,CLR,,0.13,WeatherDisplay:10.37,2013-12-26 22:19:00,
2013-12-26 16:24:00,45.4,29.7,30.26,West,275,1.1,3.5,54,0.00,CLR,,0.13,WeatherDisplay:10.37,2013-12-26 22:24:00,
2013-12-26 16:29:00,44.9,29.7,30.26,SW,219,1.7,3.5,55,0.00,CLR,,0.13,WeatherDisplay:10.37,2013-12-26 22:29:00,
2013-12-26 16:34:00,44.6,29.9,30.26,West,259,1.3,2.3,56,0.00,CLR,,0.13,WeatherDisplay:10.37,2013-12-26 22:34:00,
2013-12-26 16:35:00,44.4,30.1,30.26,SW,214,1.1,1.2,57,0.00,CLR,,0.13,WeatherDisplay:10.37,2013-12-26 22:35:00,
2013-12-26 16:40:00,44.0,30.2,30.26,WSW,255,1.0,1.2,58,0.00,CLR,,0.13,WeatherDisplay:10.37,2013-12-26 22:40:00,
2013-12-26 16:45:00,43.6,30.2,30.26,West,261,0.4,1.2,59,0.00,CLR,,0.13,WeatherDisplay:10.37,2013-12-26 22:45:00,
2013-12-26 16:50:00,43.2,30.2,30.26,WSW,257,0.7,1.2,60,0.00,CLR,,0.13,WeatherDisplay:10.37,2013-12-26 22:50:00,
2013-12-26 16:55:00,42.8,29.9,30.27,WNW,285,0.0,0.0,60,0.00,CLR,,0.13,WeatherDisplay:10.37,2013-12-26 22:55:00,
2013-12-26 17:00:00,42.4,29.9,30.27,West,276,0.0,0.0,61,0.00,CLR,,0.13,WeatherDisplay:10.37,2013-12-26 23:00:00,
2013-12-26 17:05:00,41.6,29.9,30.27,West,276,0.0,0.0,63,0.00,CLR,,0.13,WeatherDisplay:10.37,2013-12-26 23:05:00,
2013-12-26 17:10:00,41.0,29.4,30.27,WSW,252,0.2,1.2,63,0.00,CLR,,0.13,WeatherDisplay:10.37,2013-12-26 23:10:00,
2013-12-26 17:15:00,40.9,29.7,30.27,WSW,257,0.6,2.3,64,0.00,CLR,,0.13,WeatherDisplay:10.37,2013-12-26 23:15:00,
2013-12-26 17:20:00,40.6,29.7,30.28,WSW,257,0.0,0.0,65,0.00,CLR,,0.13,WeatherDisplay:10.37,2013-12-26 23:20:00,
2013-12-26 17:25:00,39.9,29.5,30.28,WSW,257,0.0,1.2,66,0.00,CLR,,0.13,WeatherDisplay:10.37,2013-12-26 23:25:00,
2013-12-26 17:30:00,39.2,29.2,30.28,WSW,257,0.0,0.0,67,0.00,CLR,,0.13,WeatherDisplay:10.37,2013-12-26 23:30:00,
2013-12-26 17:35:00,38.6,29.3,30.29,WSW,257,0.0,0.0,69,0.00,CLR,,0.13,WeatherDisplay:10.37,2013-12-26 23:35:00,
2013-12-26 17:36:00,38.5,29.2,30.28,WSW,257,0.0,0.0,69,0.00,CLR,,0.13,WeatherDisplay:10.37,2013-12-26 23:36:00,
2013-12-26 17:41:00,37.9,29.0,30.29,WSW,257,0.0,0.0,70,0.00,CLR,,0.13,WeatherDisplay:10.37,2013-12-26 23:41:00,
2013-12-26 17:42:00,37.7,28.8,30.29,WSW,257,0.0,0.0,70,0.00,CLR,,0.13,WeatherDisplay:10.37,2013-12-26 23:42:00,
2013-12-26 17:47:00,37.2,28.7,30.29,WSW,257,0.1,1.2,71,0.00,CLR,,0.13,WeatherDisplay:10.37,2013-12-26 23:47:00,
2013-12-26 17:50:00,36.8,28.6,30.29,WSW,257,0.0,0.0,72,0.00,CLR,,0.13,WeatherDisplay:10.37,2013-12-26 23:50:00,
2013-12-26 17:55:00,36.2,28.0,30.30,WSW,257,0.0,0.0,72,0.00,CLR,,0.13,WeatherDisplay:10.37,2013-12-26 23:55:00,
2013-12-26 18:00:00,35.6,28.1,30.30,WSW,257,0.0,0.0,74,0.00,CLR,,0.13,WeatherDisplay:10.37,2013-12-27 00:00:00,
2013-12-26 18:05:00,35.1,28.0,30.30,WSW,257,0.1,1.0,75,0.00,CLR,,0.13,WeatherDisplay:10.37,2013-12-27 00:05:00,
2013-12-26 18:10:00,34.9,28.4,30.29,WSW,257,0.0,0.0,77,0.00,CLR,,0.13,WeatherDisplay:10.37,2013-12-27 00:10:00,
2013-12-26 18:15:00,34.4,27.9,30.30,WSW,257,0.0,0.0,77,0.00,CLR,,0.13,WeatherDisplay:10.37,2013-12-27 00:15:00,
2013-12-26 18:20:00,33.9,27.4,30.30,WSW,257,0.0,0.0,77,0.00,CLR,,0.13,WeatherDisplay:10.37,2013-12-27 00:20:00,
2013-12-26 18:25:00,33.3,27.2,30.30,WSW,257,0.0,0.0,78,0.00,CLR,,0.13,WeatherDisplay:10.37,2013-12-27 00:25:00,
2013-12-26 18:30:00,32.8,27.3,30.30,WSW,257,0.0,0.0,80,0.00,CLR,,0.13,WeatherDisplay:10.37,2013-12-27 00:30:00,
2013-12-26 18:35:00,32.5,27.3,30.30,WSW,257,0.0,0.0,81,0.00,CLR,,0.13,WeatherDisplay:10.37,2013-12-27 00:35:00,
2013-12-26 18:40:00,32.1,26.9,30.30,WSW,257,0.0,0.0,81,0.00,CLR,,0.13,WeatherDisplay:10.37,2013-12-27 00:40:00,
2013-12-26 18:45:00,31.8,26.6,30.31,WSW,257,0.0,0.0,81,0.00,CLR,,0.13,WeatherDisplay:10.37,2013-12-27 00:45:00,
2013-12-26 18:50:00,31.4,26.2,30.31,WSW,257,0.0,0.0,81,0.00,CLR,,0.13,WeatherDisplay:10.37,2013-12-27 00:50:00,
2013-12-26 18:55:00,30.9,25.8,30.31,WSW,257,0.0,0.0,81,0.00,CLR,,0.13,WeatherDisplay:10.37,2013-12-27 00:55:00,
2013-12-26 19:00:00,30.5,26.0,30.31,WSW,257,0.0,0.0,83,0.00,CLR,,0.13,WeatherDisplay:10.37,2013-12-27 01:00:00,
2013-12-26 19:05:00,29.9,25.4,30.31,WSW,257,0.0,0.0,83,0.00,CLR,,0.13,WeatherDisplay:10.37,2013-12-27 01:05:00,
2013-12-26 19:10:00,29.6,25.4,30.31,WSW,257,0.0,0.0,84,0.00,CLR,,0.13,WeatherDisplay:10.37,2013-12-27 01:10:00,
2013-12-26 19:15:00,29.3,25.1,30.31,WSW,257,0.0,0.0,84,0.00,CLR,,0.13,WeatherDisplay:10.37,2013-12-27 01:15:00,
2013-12-26 19:21:00,28.8,25.4,30.32,WSW,257,0.0,0.0,87,0.00,CLR,,0.13,WeatherDisplay:10.37,2013-12-27 01:21:00,
2013-12-26 19:26:00,29.0,25.6,30.32,WSW,257,0.0,0.0,87,0.00,CLR,,0.13,WeatherDisplay:10.37,2013-12-27 01:26:00,
2013-12-26 19:31:00,29.1,25.4,30.32,WSW,257,0.0,0.0,86,0.00,CLR,,0.13,WeatherDisplay:10.37,2013-12-27 01:31:00,
2013-12-26 19:36:00,29.0,25.3,30.32,WSW,257,0.0,0.0,86,0.00,CLR,,0.13,WeatherDisplay:10.37,2013-12-27 01:36:00,
2013-12-26 19:41:00,28.8,25.1,30.32,WSW,257,0.0,0.0,86,0.00,CLR,,0.13,WeatherDisplay:10.37,2013-12-27 01:41:00,
2013-12-26 19:46:00,28.6,25.2,30.32,WSW,257,0.0,0.0,87,0.00,CLR,,0.13,WeatherDisplay:10.37,2013-12-27 01:46:00,
2013-12-26 19:51:00,28.6,25.2,30.32,WSW,257,0.0,0.0,87,0.00,CLR,,0.13,WeatherDisplay:10.37,2013-12-27 01:51:00,
2013-12-26 19:56:00,28.6,25.2,30.32,WSW,257,0.0,0.0,87,0.00,CLR,,0.13,WeatherDisplay:10.37,2013-12-27 01:56:00,
2013-12-26 20:01:00,28.3,24.9,30.32,WSW,257,0.0,0.0,87,0.00,CLR,,0.13,WeatherDisplay:10.37,2013-12-27 02:01:00,
2013-12-26 20:06:00,28.2,24.8,30.32,WSW,257,0.0,0.0,87,0.00,CLR,,0.13,WeatherDisplay:10.37,2013-12-27 02:06:00,
2013-12-26 20:11:00,27.9,24.5,30.32,WSW,257,0.0,0.0,87,0.00,CLR,,0.13,WeatherDisplay:10.37,2013-12-27 02:11:00,
2013-12-26 20:16:00,27.7,24.6,30.32,WSW,257,0.0,0.0,88,0.00,CLR,,0.13,WeatherDisplay:10.37,2013-12-27 02:16:00,
2013-12-26 20:21:00,27.4,24.3,30.32,WSW,257,0.0,0.0,88,0.00,CLR,,0.13,WeatherDisplay:10.37,2013-12-27 02:21:00,
2013-12-26 20:26:00,27.2,24.4,30.32,WSW,257,0.0,0.0,89,0.00,CLR,,0.13,WeatherDisplay:10.37,2013-12-27 02:26:00,
2013-12-26 20:31:00,27.1,24.6,30.32,WSW,257,0.0,0.0,90,0.00,CLR,,0.13,WeatherDisplay:10.37,2013-12-27 02:31:00,
2013-12-26 20:36:00,26.9,24.1,30.32,WSW,257,0.0,0.0,89,0.00,CLR,,0.13,WeatherDisplay:10.37,2013-12-27 02:36:00,
2013-12-26 20:41:00,26.5,23.7,30.33,WSW,257,0.0,0.0,89,0.00,CLR,,0.13,WeatherDisplay:10.37,2013-12-27 02:41:00,
2013-12-26 20:46:00,26.3,23.8,30.33,WSW,257,0.0,0.0,90,0.00,CLR,,0.13,WeatherDisplay:10.37,2013-12-27 02:46:00,
2013-12-26 20:51:00,26.1,23.6,30.33,WSW,257,0.0,0.0,90,0.00,CLR,,0.13,WeatherDisplay:10.37,2013-12-27 02:51:00,
2013-12-26 20:56:00,26.3,24.3,30.33,WSW,257,0.0,1.2,92,0.00,CLR,,0.13,WeatherDisplay:10.37,2013-12-27 02:56:00,
2013-12-26 21:01:00,26.5,24.2,30.33,WSW,257,0.0,0.0,91,0.00,CLR,,0.13,WeatherDisplay:10.37,2013-12-27 03:01:00,
2013-12-26 21:06:00,26.5,24.2,30.33,WSW,257,0.0,0.0,91,0.00,CLR,,0.13,WeatherDisplay:10.37,2013-12-27 03:06:00,
2013-12-26 21:11:00,26.6,24.3,30.33,WSW,257,0.0,0.0,91,0.00,CLR,,0.13,WeatherDisplay:10.37,2013-12-27 03:11:00,
2013-12-26 21:16:00,26.5,24.2,30.33,WSW,257,0.0,0.0,91,0.00,CLR,,0.13,WeatherDisplay:10.37,2013-12-27 03:16:00,
2013-12-26 21:21:00,26.3,24.0,30.33,WSW,257,0.0,0.0,91,0.00,CLR,,0.13,WeatherDisplay:10.37,2013-12-27 03:21:00,
2013-12-26 21:26:00,26.0,23.7,30.33,WSW,257,0.0,0.0,91,0.00,CLR,,0.13,WeatherDisplay:10.37,2013-12-27 03:26:00,
2013-12-26 21:31:00,25.8,23.3,30.33,WSW,257,0.0,0.0,90,0.00,CLR,,0.13,WeatherDisplay:10.37,2013-12-27 03:31:00,
2013-12-26 21:36:00,25.5,23.5,30.33,WSW,257,0.0,0.0,92,0.00,CLR,,0.13,WeatherDisplay:10.37,2013-12-27 03:36:00,
2013-12-26 21:41:00,25.6,23.6,30.33,WSW,257,0.0,0.0,92,0.00,CLR,,0.13,WeatherDisplay:10.37,2013-12-27 03:41:00,
2013-12-26 21:46:00,25.5,23.5,30.34,WSW,257,0.0,0.0,92,0.00,CLR,,0.13,WeatherDisplay:10.37,2013-12-27 03:46:00,
2013-12-26 21:51:00,25.3,23.3,30.34,WSW,257,0.0,0.0,92,0.00,CLR,,0.13,WeatherDisplay:10.37,2013-12-27 03:51:00,
2013-12-26 21:56:00,24.9,22.6,30.34,WSW,257,0.0,0.0,91,0.00,CLR,,0.13,WeatherDisplay:10.37,2013-12-27 03:56:00,
2013-12-26 22:01:00,24.6,22.3,30.34,WSW,257,0.0,0.0,91,0.00,CLR,,0.13,WeatherDisplay:10.37,2013-12-27 04:01:00,
2013-12-26 22:06:00,24.3,22.1,30.34,WSW,257,0.0,0.0,91,0.00,CLR,,0.13,WeatherDisplay:10.37,2013-12-27 04:06:00,
2013-12-26 22:11:00,24.2,22.2,30.34,WSW,257,0.0,0.0,92,0.00,CLR,,0.13,WeatherDisplay:10.37,2013-12-27 04:11:00,
2013-12-26 22:16:00,24.1,22.1,30.34,WSW,257,0.0,0.0,92,0.00,CLR,,0.13,WeatherDisplay:10.37,2013-12-27 04:16:00,
2013-12-26 22:21:00,24.2,22.5,30.34,WSW,257,0.0,0.0,93,0.00,CLR,,0.13,WeatherDisplay:10.37,2013-12-27 04:21:00,
2013-12-26 22:26:00,24.5,23.0,30.34,WSW,257,0.0,0.0,94,0.00,CLR,,0.13,WeatherDisplay:10.37,2013-12-27 04:26:00,
2013-12-26 22:31:00,24.5,22.8,30.34,WSW,257,0.0,0.0,93,0.00,CLR,,0.13,WeatherDisplay:10.37,2013-12-27 04:31:00,
2013-12-26 22:36:00,24.3,22.6,30.35,WSW,257,0.0,0.0,93,0.00,CLR,,0.13,WeatherDisplay:10.37,2013-12-27 04:36:00,
2013-12-26 22:41:00,23.9,21.9,30.35,WSW,257,0.0,0.0,92,0.00,CLR,,0.13,WeatherDisplay:10.37,2013-12-27 04:41:00,
2013-12-26 22:46:00,23.8,22.1,30.35,WSW,257,0.0,0.0,93,0.00,CLR,,0.13,WeatherDisplay:10.37,2013-12-27 04:46:00,
2013-12-26 22:51:00,24.0,22.5,30.35,WSW,257,0.0,0.0,94,0.00,CLR,,0.13,WeatherDisplay:10.37,2013-12-27 04:51:00,
2013-12-26 22:56:00,24.0,22.5,30.35,WSW,257,0.0,0.0,94,0.00,CLR,,0.13,WeatherDisplay:10.37,2013-12-27 04:56:00,
2013-12-26 23:01:00,23.9,22.2,30.35,WSW,257,0.0,0.0,93,0.00,CLR,,0.13,WeatherDisplay:10.37,2013-12-27 05:01:00,
2013-12-26 23:06:00,23.7,22.0,30.35,WSW,257,0.0,0.0,93,0.00,CLR,,0.13,WeatherDisplay:10.37,2013-12-27 05:06:00,
2013-12-26 23:11:00,23.6,22.1,30.34,WSW,257,0.0,0.0,94,0.00,CLR,,0.13,WeatherDisplay:10.37,2013-12-27 05:11:00,
2013-12-26 23:16:00,23.8,22.3,30.34,WSW,257,0.0,0.0,94,0.00,CLR,,0.13,WeatherDisplay:10.37,2013-12-27 05:16:00,
2013-12-26 23:21:00,23.8,22.3,30.35,WSW,257,0.0,0.0,94,0.00,CLR,,0.13,WeatherDisplay:10.37,2013-12-27 05:21:00,
2013-12-26 23:26:00,23.8,22.3,30.34,WSW,257,0.0,0.0,94,0.00,CLR,,0.13,WeatherDisplay:10.37,2013-12-27 05:26:00,
2013-12-26 23:31:00,23.9,22.4,30.35,WSW,257,0.0,0.0,94,0.00,CLR,,0.13,WeatherDisplay:10.37,2013-12-27 05:31:00,
2013-12-26 23:36:00,24.2,22.7,30.35,WSW,257,0.0,0.0,94,0.00,CLR,,0.13,WeatherDisplay:10.37,2013-12-27 05:36:00,
2013-12-26 23:41:00,24.3,22.8,30.35,WSW,257,0.0,0.0,94,0.00,CLR,,0.13,WeatherDisplay:10.37,2013-12-27 05:41:00,
2013-12-26 23:46:00,24.1,22.4,30.35,WSW,257,0.0,0.0,93,0.00,CLR,,0.13,WeatherDisplay:10.37,2013-12-27 05:46:00,
2013-12-26 23:51:00,23.9,22.2,30.35,WSW,257,0.0,0.0,93,0.00,CLR,,0.13,WeatherDisplay:10.37,2013-12-27 05:51:00,
2013-12-26 23:56:00,23.8,22.1,30.36,WSW,257,0.0,0.0,93,0.00,CLR,,0.13,WeatherDisplay:10.37,2013-12-27 05:56:00,